sensor_id;sensor_type;location;lat;lon;timestamp;pressure;altitude;pressure_sealevel;temperature;humidity
78582;BME280;67878;46.242;5.974;2023-12-20T00:02:07;95744.31;;;19.13;43.90
78582;BME280;67878;46.242;5.974;2023-12-20T00:04:33;95741.69;;;19.13;43.91
78582;BME280;67878;46.242;5.974;2023-12-20T00:06:58;95738.09;;;19.14;43.71
78582;BME280;67878;46.242;5.974;2023-12-20T00:09:24;95739.88;;;19.13;43.95
78582;BME280;67878;46.242;5.974;2023-12-20T00:11:49;95727.78;;;19.12;43.71
78582;BME280;67878;46.242;5.974;2023-12-20T00:14:14;95738.25;;;19.12;43.67
78582;BME280;67878;46.242;5.974;2023-12-20T00:16:40;95724.31;;;19.12;43.89
78582;BME280;67878;46.242;5.974;2023-12-20T00:19:05;95720.75;;;19.13;43.82
78582;BME280;67878;46.242;5.974;2023-12-20T00:21:31;95725.16;;;19.12;43.93
78582;BME280;67878;46.242;5.974;2023-12-20T00:23:56;95728.59;;;19.13;43.63
78582;BME280;67878;46.242;5.974;2023-12-20T00:26:21;95732.16;;;19.12;43.38
78582;BME280;67878;46.242;5.974;2023-12-20T00:28:47;95718.25;;;19.11;43.71
78582;BME280;67878;46.242;5.974;2023-12-20T00:31:12;95720.88;;;19.11;43.67
78582;BME280;67878;46.242;5.974;2023-12-20T00:33:38;95733.97;;;19.11;43.72
78582;BME280;67878;46.242;5.974;2023-12-20T00:36:05;95740.03;;;19.12;43.92
78582;BME280;67878;46.242;5.974;2023-12-20T00:38:30;95720.06;;;19.11;43.88
78582;BME280;67878;46.242;5.974;2023-12-20T00:40:56;95724.31;;;19.12;43.67
78582;BME280;67878;46.242;5.974;2023-12-20T00:43:21;95720.06;;;19.11;43.59
78582;BME280;67878;46.242;5.974;2023-12-20T00:45:47;95708.78;;;19.10;43.82
78582;BME280;67878;46.242;5.974;2023-12-20T00:48:12;95706.00;;;19.12;43.43
78582;BME280;67878;46.242;5.974;2023-12-20T00:50:37;95714.00;;;19.10;43.53
78582;BME280;67878;46.242;5.974;2023-12-20T00:53:03;95723.66;;;19.10;43.46
78582;BME280;67878;46.242;5.974;2023-12-20T00:55:28;95723.66;;;19.10;43.67
78582;BME280;67878;46.242;5.974;2023-12-20T00:57:54;95726.13;;;19.11;43.72
78582;BME280;67878;46.242;5.974;2023-12-20T01:00:19;95742.81;;;19.10;43.61
78582;BME280;67878;46.242;5.974;2023-12-20T01:02:45;95728.91;;;19.10;43.66
78582;BME280;67878;46.242;5.974;2023-12-20T01:05:11;95724.63;;;19.09;43.59
78582;BME280;67878;46.242;5.974;2023-12-20T01:07:37;95727.09;;;19.10;43.49
78582;BME280;67878;46.242;5.974;2023-12-20T01:10:03;95738.56;;;19.09;43.42
78582;BME280;67878;46.242;5.974;2023-12-20T01:12:28;95755.06;;;19.10;43.48
78582;BME280;67878;46.242;5.974;2023-12-20T01:14:54;95749.03;;;19.09;43.42
78582;BME280;67878;46.242;5.974;2023-12-20T01:17:19;95756.03;;;19.09;43.63
78582;BME280;67878;46.242;5.974;2023-12-20T01:19:44;95748.19;;;19.09;43.71
78582;BME280;67878;46.242;5.974;2023-12-20T01:22:10;95744.59;;;19.10;43.53
78582;BME280;67878;46.242;5.974;2023-12-20T01:24:35;95741.16;;;19.09;43.62
78582;BME280;67878;46.242;5.974;2023-12-20T01:27:01;95740.19;;;19.10;43.68
78582;BME280;67878;46.242;5.974;2023-12-20T01:29:27;95743.50;;;19.12;43.84
78582;BME280;67878;46.242;5.974;2023-12-20T01:31:52;95736.28;;;19.14;43.61
78582;BME280;67878;46.242;5.974;2023-12-20T01:34:18;95736.97;;;19.16;43.80
78582;BME280;67878;46.242;5.974;2023-12-20T01:36:43;95750.75;;;19.18;43.61
78582;BME280;67878;46.242;5.974;2023-12-20T01:39:09;95737.66;;;19.18;43.70
78582;BME280;67878;46.242;5.974;2023-12-20T01:41:35;95736.84;;;19.18;43.38
78582;BME280;67878;46.242;5.974;2023-12-20T01:44:00;95734.22;;;19.18;43.48
78582;BME280;67878;46.242;5.974;2023-12-20T01:46:26;95735.16;;;19.17;43.51
78582;BME280;67878;46.242;5.974;2023-12-20T01:48:52;95736.16;;;19.16;43.63
78582;BME280;67878;46.242;5.974;2023-12-20T01:51:18;95731.72;;;19.16;43.23
78582;BME280;67878;46.242;5.974;2023-12-20T01:53:44;95731.06;;;19.14;43.31
78582;BME280;67878;46.242;5.974;2023-12-20T01:56:10;95747.59;;;19.15;43.73
78582;BME280;67878;46.242;5.974;2023-12-20T01:58:43;95742.06;;;19.18;43.54
78582;BME280;67878;46.242;5.974;2023-12-20T02:01:09;95741.22;;;19.17;43.51
78582;BME280;67878;46.242;5.974;2023-12-20T02:03:35;95735.03;;;19.18;43.11
78582;BME280;67878;46.242;5.974;2023-12-20T02:06:03;95738.59;;;19.17;43.46
78582;BME280;67878;46.242;5.974;2023-12-20T02:08:28;95734.22;;;19.18;43.60
78582;BME280;67878;46.242;5.974;2023-12-20T02:10:54;95739.44;;;19.18;43.32
78582;BME280;67878;46.242;5.974;2023-12-20T02:13:21;95724.69;;;19.17;43.40
78582;BME280;67878;46.242;5.974;2023-12-20T02:15:46;95733.38;;;19.17;43.24
78582;BME280;67878;46.242;5.974;2023-12-20T02:18:12;95726.50;;;19.16;43.23
78582;BME280;67878;46.242;5.974;2023-12-20T02:20:40;95725.69;;;19.16;43.09
78582;BME280;67878;46.242;5.974;2023-12-20T02:23:05;95729.28;;;19.15;43.33
78582;BME280;67878;46.242;5.974;2023-12-20T02:25:31;95730.22;;;19.14;43.21
78582;BME280;67878;46.242;5.974;2023-12-20T02:27:56;95725.97;;;19.13;43.30
78582;BME280;67878;46.242;5.974;2023-12-20T02:30:22;95729.56;;;19.12;43.36
78582;BME280;67878;46.242;5.974;2023-12-20T02:32:48;95721.69;;;19.12;43.26
78582;BME280;67878;46.242;5.974;2023-12-20T02:35:15;95727.78;;;19.12;43.24
78582;BME280;67878;46.242;5.974;2023-12-20T02:37:40;95725.28;;;19.11;43.47
78582;BME280;67878;46.242;5.974;2023-12-20T02:40:07;95713.19;;;19.10;43.32
78582;BME280;67878;46.242;5.974;2023-12-20T02:42:33;95712.38;;;19.09;43.33
78582;BME280;67878;46.242;5.974;2023-12-20T02:44:58;95726.28;;;19.10;43.35
78582;BME280;67878;46.242;5.974;2023-12-20T02:47:24;95724.63;;;19.09;43.38
78582;BME280;67878;46.242;5.974;2023-12-20T02:49:49;95708.91;;;19.09;43.31
78582;BME280;67878;46.242;5.974;2023-12-20T02:52:15;95710.72;;;19.08;43.27
78582;BME280;67878;46.242;5.974;2023-12-20T02:54:40;95715.13;;;19.08;43.26
78582;BME280;67878;46.242;5.974;2023-12-20T02:57:06;95709.91;;;19.08;43.28
78582;BME280;67878;46.242;5.974;2023-12-20T02:59:31;95719.53;;;19.07;43.33
78582;BME280;67878;46.242;5.974;2023-12-20T03:01:57;95730.00;;;19.07;43.16
78582;BME280;67878;46.242;5.974;2023-12-20T03:04:22;95726.59;;;19.07;43.35
78582;BME280;67878;46.242;5.974;2023-12-20T03:06:48;95723.13;;;19.06;43.23
78582;BME280;67878;46.242;5.974;2023-12-20T03:09:13;95714.44;;;19.06;43.42
78582;BME280;67878;46.242;5.974;2023-12-20T03:11:39;95711.81;;;19.06;43.36
78582;BME280;67878;46.242;5.974;2023-12-20T03:14:04;95714.44;;;19.06;43.59
78582;BME280;67878;46.242;5.974;2023-12-20T03:16:29;95725.72;;;19.06;43.34
78582;BME280;67878;46.242;5.974;2023-12-20T03:18:56;95727.53;;;19.06;43.47
78582;BME280;67878;46.242;5.974;2023-12-20T03:21:22;95720.66;;;19.04;43.88
78582;BME280;67878;46.242;5.974;2023-12-20T03:23:47;95721.47;;;19.05;43.28
78582;BME280;67878;46.242;5.974;2023-12-20T03:26:13;95716.25;;;19.05;43.30
78582;BME280;67878;46.242;5.974;2023-12-20T03:28:39;95707.56;;;19.04;43.36
78582;BME280;67878;46.242;5.974;2023-12-20T03:31:04;95708.41;;;19.05;43.33
78582;BME280;67878;46.242;5.974;2023-12-20T03:33:30;95715.44;;;19.04;43.44
78582;BME280;67878;46.242;5.974;2023-12-20T03:35:55;95703.31;;;19.03;43.21
78582;BME280;67878;46.242;5.974;2023-12-20T03:38:22;95709.38;;;19.04;43.12
78582;BME280;67878;46.242;5.974;2023-12-20T03:40:49;95708.56;;;19.03;43.19
78582;BME280;67878;46.242;5.974;2023-12-20T03:43:15;95713.78;;;19.03;43.35
78582;BME280;67878;46.242;5.974;2023-12-20T03:45:41;95718.19;;;19.03;43.07
78582;BME280;67878;46.242;5.974;2023-12-20T03:48:07;95723.41;;;19.03;43.32
78582;BME280;67878;46.242;5.974;2023-12-20T03:50:32;95715.56;;;19.03;43.33
78582;BME280;67878;46.242;5.974;2023-12-20T03:52:57;95713.78;;;19.03;43.19
78582;BME280;67878;46.242;5.974;2023-12-20T03:55:23;95715.56;;;19.03;43.16
78582;BME280;67878;46.242;5.974;2023-12-20T03:57:48;95717.38;;;19.02;43.20
78582;BME280;67878;46.242;5.974;2023-12-20T04:00:14;95719.03;;;19.03;43.11
78582;BME280;67878;46.242;5.974;2023-12-20T04:02:41;95714.63;;;19.04;43.21
78582;BME280;67878;46.242;5.974;2023-12-20T04:05:07;95698.09;;;19.03;43.11
78582;BME280;67878;46.242;5.974;2023-12-20T04:07:33;95694.50;;;19.04;43.27
78582;BME280;67878;46.242;5.974;2023-12-20T04:09:59;95698.75;;;19.06;43.20
78582;BME280;67878;46.242;5.974;2023-12-20T04:12:25;95706.47;;;19.07;43.09
78582;BME280;67878;46.242;5.974;2023-12-20T04:14:51;95702.03;;;19.08;42.97
78582;BME280;67878;46.242;5.974;2023-12-20T04:17:17;95696.81;;;19.08;43.00
78582;BME280;67878;46.242;5.974;2023-12-20T04:19:43;95702.34;;;19.04;42.85
78582;BME280;67878;46.242;5.974;2023-12-20T04:22:09;95700.41;;;19.07;43.08
78582;BME280;67878;46.242;5.974;2023-12-20T04:24:34;95710.88;;;19.07;42.97
78582;BME280;67878;46.242;5.974;2023-12-20T04:27:00;95706.47;;;19.07;43.19
78582;BME280;67878;46.242;5.974;2023-12-20T04:29:25;95708.09;;;19.08;43.04
78582;BME280;67878;46.242;5.974;2023-12-20T04:31:51;95704.66;;;19.08;43.06
78582;BME280;67878;46.242;5.974;2023-12-20T04:34:17;95700.25;;;19.08;43.23
78582;BME280;67878;46.242;5.974;2023-12-20T04:36:43;95708.09;;;19.08;43.03
78582;BME280;67878;46.242;5.974;2023-12-20T04:39:08;95711.53;;;19.09;42.94
78582;BME280;67878;46.242;5.974;2023-12-20T04:41:34;95702.72;;;19.10;42.85
78582;BME280;67878;46.242;5.974;2023-12-20T04:43:59;95701.06;;;19.09;42.99
78582;BME280;67878;46.242;5.974;2023-12-20T04:46:25;95709.59;;;19.11;42.83
78582;BME280;67878;46.242;5.974;2023-12-20T04:48:51;95709.75;;;19.09;42.81
78582;BME280;67878;46.242;5.974;2023-12-20T04:51:16;95707.97;;;19.10;43.00
78582;BME280;67878;46.242;5.974;2023-12-20T04:53:42;95709.59;;;19.11;43.21
78582;BME280;67878;46.242;5.974;2023-12-20T04:56:07;95706.00;;;19.12;43.14
78582;BME280;67878;46.242;5.974;2023-12-20T04:58:33;95709.59;;;19.11;42.64
78582;BME280;67878;46.242;5.974;2023-12-20T05:00:58;95706.00;;;19.12;42.90
78582;BME280;67878;46.242;5.974;2023-12-20T05:03:24;95703.38;;;19.12;42.96
78582;BME280;67878;46.242;5.974;2023-12-20T05:05:49;95699.94;;;19.11;43.05
78582;BME280;67878;46.242;5.974;2023-12-20T05:08:15;95709.47;;;19.12;43.01
78582;BME280;67878;46.242;5.974;2023-12-20T05:10:40;95707.66;;;19.13;43.12
78582;BME280;67878;46.242;5.974;2023-12-20T05:13:06;95711.91;;;19.14;43.05
78582;BME280;67878;46.242;5.974;2023-12-20T05:15:31;95715.34;;;19.14;42.99
78582;BME280;67878;46.242;5.974;2023-12-20T05:17:57;95709.28;;;19.14;42.91
78582;BME280;67878;46.242;5.974;2023-12-20T05:20:22;95712.88;;;19.13;42.88
78582;BME280;67878;46.242;5.974;2023-12-20T05:22:48;95721.44;;;19.15;42.91
78582;BME280;67878;46.242;5.974;2023-12-20T05:25:13;95718.81;;;19.15;42.94
78582;BME280;67878;46.242;5.974;2023-12-20T05:27:39;95710.94;;;19.15;42.97
78582;BME280;67878;46.242;5.974;2023-12-20T05:30:05;95708.34;;;19.15;42.97
78582;BME280;67878;46.242;5.974;2023-12-20T05:32:31;95719.63;;;19.15;43.02
78582;BME280;67878;46.242;5.974;2023-12-20T05:34:56;95723.06;;;19.16;43.05
78582;BME280;67878;46.242;5.974;2023-12-20T05:37:22;95724.84;;;19.15;42.74
78582;BME280;67878;46.242;5.974;2023-12-20T05:39:47;95730.91;;;19.16;42.76
78582;BME280;67878;46.242;5.974;2023-12-20T05:42:13;95741.38;;;19.16;42.92
78582;BME280;67878;46.242;5.974;2023-12-20T05:44:38;95744.81;;;19.16;42.85
78582;BME280;67878;46.242;5.974;2023-12-20T05:47:03;95746.44;;;19.17;43.07
78582;BME280;67878;46.242;5.974;2023-12-20T05:49:29;95744.81;;;19.16;42.83
78582;BME280;67878;46.242;5.974;2023-12-20T05:51:54;95750.75;;;19.18;42.74
78582;BME280;67878;46.242;5.974;2023-12-20T05:54:20;95742.06;;;19.18;42.91
78582;BME280;67878;46.242;5.974;2023-12-20T05:56:46;95745.63;;;19.17;42.59
78582;BME280;67878;46.242;5.974;2023-12-20T05:59:12;95749.06;;;19.17;42.79
78582;BME280;67878;46.242;5.974;2023-12-20T06:01:37;95746.44;;;19.17;42.90
78582;BME280;67878;46.242;5.974;2023-12-20T06:04:03;95743.69;;;19.19;43.14
78582;BME280;67878;46.242;5.974;2023-12-20T06:06:29;95745.19;;;19.21;42.91
78582;BME280;67878;46.242;5.974;2023-12-20T06:08:55;95746.03;;;19.22;42.86
78582;BME280;67878;46.242;5.974;2023-12-20T06:11:21;95758.13;;;19.23;43.18
78582;BME280;67878;46.242;5.974;2023-12-20T06:13:46;95776.31;;;19.24;43.02
78582;BME280;67878;46.242;5.974;2023-12-20T06:16:12;95763.22;;;19.24;42.90
78582;BME280;67878;46.242;5.974;2023-12-20T06:18:38;95761.59;;;19.23;42.75
78582;BME280;67878;46.242;5.974;2023-12-20T06:21:03;95758.81;;;19.25;43.12
78582;BME280;67878;46.242;5.974;2023-12-20T06:23:29;95770.94;;;19.26;43.21
78582;BME280;67878;46.242;5.974;2023-12-20T06:25:54;95758.81;;;19.25;43.13
78582;BME280;67878;46.242;5.974;2023-12-20T06:28:20;95753.44;;;19.26;43.22
78582;BME280;67878;46.242;5.974;2023-12-20T06:30:45;95756.88;;;19.27;43.19
78582;BME280;67878;46.242;5.974;2023-12-20T06:33:14;95749.00;;;19.27;43.15
78582;BME280;67878;46.242;5.974;2023-12-20T06:35:39;95751.63;;;19.27;42.92
78582;BME280;67878;46.242;5.974;2023-12-20T06:38:05;95757.69;;;19.27;43.15
78582;BME280;67878;46.242;5.974;2023-12-20T06:40:30;95759.50;;;19.27;42.78
78582;BME280;67878;46.242;5.974;2023-12-20T06:42:56;95776.84;;;19.28;43.31
78582;BME280;67878;46.242;5.974;2023-12-20T06:45:21;95777.81;;;19.27;43.11
78582;BME280;67878;46.242;5.974;2023-12-20T06:47:47;95775.88;;;19.29;43.01
78582;BME280;67878;46.242;5.974;2023-12-20T06:50:12;95774.91;;;19.30;43.19
78582;BME280;67878;46.242;5.974;2023-12-20T06:52:37;95782.75;;;19.30;43.26
78582;BME280;67878;46.242;5.974;2023-12-20T06:55:03;95777.53;;;19.30;43.20
78582;BME280;67878;46.242;5.974;2023-12-20T06:57:29;95782.75;;;19.30;43.10
78582;BME280;67878;46.242;5.974;2023-12-20T06:59:55;95784.56;;;19.30;43.17
78582;BME280;67878;46.242;5.974;2023-12-20T07:02:20;95774.09;;;19.30;43.06
78582;BME280;67878;46.242;5.974;2023-12-20T07:04:47;95775.03;;;19.29;43.39
78582;BME280;67878;46.242;5.974;2023-12-20T07:07:13;95763.75;;;19.28;43.33
78582;BME280;67878;46.242;5.974;2023-12-20T07:09:38;95772.59;;;19.27;43.37
78582;BME280;67878;46.242;5.974;2023-12-20T07:12:04;95763.75;;;19.28;43.32
78582;BME280;67878;46.242;5.974;2023-12-20T07:14:29;95769.78;;;19.29;43.44
78582;BME280;67878;46.242;5.974;2023-12-20T07:16:55;95777.00;;;19.26;43.38
78582;BME280;67878;46.242;5.974;2023-12-20T07:19:20;95777.81;;;19.27;43.54
78582;BME280;67878;46.242;5.974;2023-12-20T07:21:46;95782.25;;;19.26;43.37
78582;BME280;67878;46.242;5.974;2023-12-20T07:24:11;95789.09;;;19.27;43.34
78582;BME280;67878;46.242;5.974;2023-12-20T07:26:37;95790.75;;;19.29;43.71
78582;BME280;67878;46.242;5.974;2023-12-20T07:29:03;95797.47;;;19.31;43.87
78582;BME280;67878;46.242;5.974;2023-12-20T07:31:29;95794.88;;;19.31;43.44
78582;BME280;67878;46.242;5.974;2023-12-20T07:33:55;95792.41;;;19.30;43.56
78582;BME280;67878;46.242;5.974;2023-12-20T07:36:20;95796.66;;;19.31;43.43
78582;BME280;67878;46.242;5.974;2023-12-20T07:38:46;95807.13;;;19.31;43.50
78582;BME280;67878;46.242;5.974;2023-12-20T07:41:12;95821.22;;;19.30;43.63
78582;BME280;67878;46.242;5.974;2023-12-20T07:43:41;95829.22;;;19.28;43.33
78582;BME280;67878;46.242;5.974;2023-12-20T07:46:07;95829.22;;;19.28;43.36
78582;BME280;67878;46.242;5.974;2023-12-20T07:48:36;95838.88;;;19.27;43.26
78582;BME280;67878;46.242;5.974;2023-12-20T07:51:03;95834.59;;;19.26;43.41
78582;BME280;67878;46.242;5.974;2023-12-20T07:53:28;95833.78;;;19.26;43.31
78582;BME280;67878;46.242;5.974;2023-12-20T07:55:55;95841.66;;;19.26;43.41
78582;BME280;67878;46.242;5.974;2023-12-20T07:58:20;95839.84;;;19.26;43.15
78582;BME280;67878;46.242;5.974;2023-12-20T08:00:46;95849.34;;;19.27;43.29
78582;BME280;67878;46.242;5.974;2023-12-20T08:03:11;95851.13;;;19.27;43.26
78582;BME280;67878;46.242;5.974;2023-12-20T08:05:38;95852.78;;;19.28;43.02
78582;BME280;67878;46.242;5.974;2023-12-20T08:08:06;95850.16;;;19.28;43.25
78582;BME280;67878;46.242;5.974;2023-12-20T08:10:31;95853.59;;;19.29;43.23
78582;BME280;67878;46.242;5.974;2023-12-20T08:12:57;95858.00;;;19.28;43.03
78582;BME280;67878;46.242;5.974;2023-12-20T08:15:22;95862.31;;;19.29;42.97
78582;BME280;67878;46.242;5.974;2023-12-20T08:17:48;95859.69;;;19.29;43.10
78582;BME280;67878;46.242;5.974;2023-12-20T08:20:16;95857.06;;;19.29;43.21
78582;BME280;67878;46.242;5.974;2023-12-20T08:22:41;95865.75;;;19.30;43.11
78582;BME280;67878;46.242;5.974;2023-12-20T08:25:07;95879.78;;;19.29;43.15
78582;BME280;67878;46.242;5.974;2023-12-20T08:27:34;95868.50;;;19.28;43.17
78582;BME280;67878;46.242;5.974;2023-12-20T08:30:03;95875.53;;;19.27;43.40
78582;BME280;67878;46.242;5.974;2023-12-20T08:32:29;95865.88;;;19.28;43.27
78582;BME280;67878;46.242;5.974;2023-12-20T08:34:55;95871.09;;;19.28;43.23
78582;BME280;67878;46.242;5.974;2023-12-20T08:37:20;95880.63;;;19.29;43.39
78582;BME280;67878;46.242;5.974;2023-12-20T08:39:46;95885.03;;;19.29;43.60
78582;BME280;67878;46.242;5.974;2023-12-20T08:42:11;95890.13;;;19.30;43.26
78582;BME280;67878;46.242;5.974;2023-12-20T08:44:36;95883.09;;;19.31;43.38
78582;BME280;67878;46.242;5.974;2023-12-20T08:47:03;95880.47;;;19.31;43.09
78582;BME280;67878;46.242;5.974;2023-12-20T08:49:29;95888.19;;;19.32;43.07
78582;BME280;67878;46.242;5.974;2023-12-20T08:51:54;95885.41;;;19.34;43.11
78582;BME280;67878;46.242;5.974;2023-12-20T08:54:20;95886.91;;;19.36;43.04
78582;BME280;67878;46.242;5.974;2023-12-20T08:56:45;95898.88;;;19.39;43.16
78582;BME280;67878;46.242;5.974;2023-12-20T08:59:11;95885.66;;;19.40;42.58
78582;BME280;67878;46.242;5.974;2023-12-20T09:01:37;95882.75;;;19.43;42.80
78582;BME280;67878;46.242;5.974;2023-12-20T09:04:03;95887.81;;;19.45;42.15
78582;BME280;67878;46.242;5.974;2023-12-20T09:06:28;95886.88;;;19.46;42.13
78582;BME280;67878;46.242;5.974;2023-12-20T09:08:54;95877.22;;;19.46;42.20
78582;BME280;67878;46.242;5.974;2023-12-20T09:11:20;95879.66;;;19.48;42.13
78582;BME280;67878;46.242;5.974;2023-12-20T09:13:46;95876.22;;;19.47;41.65
78582;BME280;67878;46.242;5.974;2023-12-20T09:16:11;95870.84;;;19.49;41.89
78582;BME280;67878;46.242;5.974;2023-12-20T09:18:38;95873.31;;;19.51;41.85
78582;BME280;67878;46.242;5.974;2023-12-20T09:21:04;95873.16;;;19.52;41.70
78582;BME280;67878;46.242;5.974;2023-12-20T09:23:29;95861.88;;;19.52;41.78
78582;BME280;67878;46.242;5.974;2023-12-20T09:25:55;95867.75;;;19.54;41.49
78582;BME280;67878;46.242;5.974;2023-12-20T09:28:21;95864.03;;;19.56;41.35
78582;BME280;67878;46.242;5.974;2023-12-20T09:30:46;95868.16;;;19.59;41.05
78582;BME280;67878;46.242;5.974;2023-12-20T09:33:14;95875.88;;;19.60;41.10
78582;BME280;67878;46.242;5.974;2023-12-20T09:35:41;95870.47;;;19.62;40.77
78582;BME280;67878;46.242;5.974;2023-12-20T09:38:06;95863.28;;;19.64;41.22
78582;BME280;67878;46.242;5.974;2023-12-20T09:40:32;95866.63;;;19.66;41.22
78582;BME280;67878;46.242;5.974;2023-12-20T09:43:18;95865.81;;;19.65;40.87
78582;BME280;67878;46.242;5.974;2023-12-20T09:45:47;95859.56;;;19.66;41.00
78582;BME280;67878;46.242;5.974;2023-12-20T09:48:13;95855.84;;;19.69;41.15
78582;BME280;67878;46.242;5.974;2023-12-20T09:50:40;95861.59;;;19.73;41.14
78582;BME280;67878;46.242;5.974;2023-12-20T09:53:08;95864.72;;;19.76;40.79
78582;BME280;67878;46.242;5.974;2023-12-20T09:55:36;95869.66;;;19.79;41.09
78582;BME280;67878;46.242;5.974;2023-12-20T09:58:02;95873.66;;;19.83;41.06
78582;BME280;67878;46.242;5.974;2023-12-20T10:00:27;95870.84;;;19.85;41.04
78582;BME280;67878;46.242;5.974;2023-12-20T10:03:00;95873.22;;;19.88;41.01
78582;BME280;67878;46.242;5.974;2023-12-20T10:05:32;95866.00;;;19.90;40.56
78582;BME280;67878;46.242;5.974;2023-12-20T10:07:59;95869.28;;;19.92;40.83
78582;BME280;67878;46.242;5.974;2023-12-20T10:10:24;95867.66;;;19.91;40.92
78582;BME280;67878;46.242;5.974;2023-12-20T10:15:28;95861.53;;;19.82;41.07
78582;BME280;67878;46.242;5.974;2023-12-20T10:17:53;95865.41;;;19.78;41.18
78582;BME280;67878;46.242;5.974;2023-12-20T10:20:19;95865.56;;;19.77;41.20
78582;BME280;67878;46.242;5.974;2023-12-20T10:22:45;95863.22;;;19.74;41.16
78582;BME280;67878;46.242;5.974;2023-12-20T10:25:11;95873.06;;;19.72;41.26
78582;BME280;67878;46.242;5.974;2023-12-20T10:27:37;95864.50;;;19.69;41.26
78582;BME280;67878;46.242;5.974;2023-12-20T10:30:04;95854.16;;;19.68;40.83
78582;BME280;67878;46.242;5.974;2023-12-20T10:32:31;95847.97;;;19.69;41.33
78582;BME280;67878;46.242;5.974;2023-12-20T10:34:57;95851.28;;;19.71;41.16
78582;BME280;67878;46.242;5.974;2023-12-20T10:37:24;95849.47;;;19.72;41.23
78582;BME280;67878;46.242;5.974;2023-12-20T10:39:52;95849.31;;;19.73;40.93
78582;BME280;67878;46.242;5.974;2023-12-20T10:42:21;95832.63;;;19.74;41.45
78582;BME280;67878;46.242;5.974;2023-12-20T10:44:50;95827.09;;;19.77;41.43
78582;BME280;67878;46.242;5.974;2023-12-20T10:47:17;95830.53;;;19.78;41.58
78582;BME280;67878;46.242;5.974;2023-12-20T10:49:43;95834.78;;;19.79;41.41
78582;BME280;67878;46.242;5.974;2023-12-20T10:52:11;95829.69;;;19.77;41.38
78582;BME280;67878;46.242;5.974;2023-12-20T10:54:36;95830.34;;;19.79;41.30
78582;BME280;67878;46.242;5.974;2023-12-20T10:57:05;95820.84;;;19.78;41.44
78582;BME280;67878;46.242;5.974;2023-12-20T10:59:33;95826.91;;;19.79;41.43
78582;BME280;67878;46.242;5.974;2023-12-20T11:02:03;95827.72;;;19.79;41.13
78582;BME280;67878;46.242;5.974;2023-12-20T11:07:33;95815.63;;;19.78;41.28
78582;BME280;67878;46.242;5.974;2023-12-20T11:10:20;95808.75;;;19.77;41.49
78582;BME280;67878;46.242;5.974;2023-12-20T11:13:23;95807.06;;;19.76;41.65
78582;BME280;67878;46.242;5.974;2023-12-20T11:15:52;95806.94;;;19.78;41.66
78582;BME280;67878;46.242;5.974;2023-12-20T11:18:18;95812.19;;;19.78;41.80
78582;BME280;67878;46.242;5.974;2023-12-20T11:20:43;95822.66;;;19.78;41.70
78582;BME280;67878;46.242;5.974;2023-12-20T11:23:09;95813.00;;;19.78;41.80
78582;BME280;67878;46.242;5.974;2023-12-20T11:25:51;95809.56;;;19.78;41.89
78582;BME280;67878;46.242;5.974;2023-12-20T11:28:21;95814.78;;;19.78;41.71
78582;BME280;67878;46.242;5.974;2023-12-20T11:30:50;95806.94;;;19.78;41.83
78582;BME280;67878;46.242;5.974;2023-12-20T11:33:16;95805.94;;;19.79;41.57
78582;BME280;67878;46.242;5.974;2023-12-20T11:35:43;95811.34;;;19.77;41.62
78582;BME280;67878;46.242;5.974;2023-12-20T11:38:10;95807.06;;;19.76;41.64
78582;BME280;67878;46.242;5.974;2023-12-20T11:40:36;95804.44;;;19.76;41.83
78582;BME280;67878;46.242;5.974;2023-12-20T11:43:03;95797.56;;;19.75;41.69
78582;BME280;67878;46.242;5.974;2023-12-20T11:45:33;95795.78;;;19.76;41.61
78582;BME280;67878;46.242;5.974;2023-12-20T11:48:01;95798.41;;;19.76;41.44
78582;BME280;67878;46.242;5.974;2023-12-20T11:50:27;95804.44;;;19.76;41.85
78582;BME280;67878;46.242;5.974;2023-12-20T11:52:53;95793.97;;;19.76;42.05
78582;BME280;67878;46.242;5.974;2023-12-20T11:55:23;95793.16;;;19.76;42.30
78582;BME280;67878;46.242;5.974;2023-12-20T11:57:52;95791.22;;;19.78;42.48
78582;BME280;67878;46.242;5.974;2023-12-20T12:00:21;95786.97;;;19.77;42.26
78582;BME280;67878;46.242;5.974;2023-12-20T12:02:58;95776.47;;;19.77;42.30
78582;BME280;67878;46.242;5.974;2023-12-20T12:05:24;95768.63;;;19.77;42.41
78582;BME280;67878;46.242;5.974;2023-12-20T12:07:49;95775.47;;;19.78;42.62
78582;BME280;67878;46.242;5.974;2023-12-20T12:10:15;95775.31;;;19.79;42.71
78582;BME280;67878;46.242;5.974;2023-12-20T12:12:40;95769.13;;;19.80;42.86
78582;BME280;67878;46.242;5.974;2023-12-20T12:15:06;95769.13;;;19.80;42.86
78582;BME280;67878;46.242;5.974;2023-12-20T12:17:32;95757.66;;;19.81;43.17
78582;BME280;67878;46.242;5.974;2023-12-20T12:20:04;95771.44;;;19.83;43.47
78582;BME280;67878;46.242;5.974;2023-12-20T12:22:30;95761.94;;;19.82;43.24
78582;BME280;67878;46.242;5.974;2023-12-20T12:24:59;95773.88;;;19.85;43.48
78582;BME280;67878;46.242;5.974;2023-12-20T12:27:25;95769.31;;;19.87;43.22
78582;BME280;67878;46.242;5.974;2023-12-20T12:30:02;95764.88;;;19.87;43.31
78582;BME280;67878;46.242;5.974;2023-12-20T12:32:32;95769.19;;;19.88;42.88
78582;BME280;67878;46.242;5.974;2023-12-20T12:34:58;95770.13;;;19.87;43.18
78582;BME280;67878;46.242;5.974;2023-12-20T12:37:23;95762.94;;;19.89;43.17
78582;BME280;67878;46.242;5.974;2023-12-20T12:39:49;95781.28;;;19.89;43.17
78582;BME280;67878;46.242;5.974;2023-12-20T12:42:15;95776.88;;;19.90;43.26
78582;BME280;67878;46.242;5.974;2023-12-20T12:44:40;95770.81;;;19.89;43.09
78582;BME280;67878;46.242;5.974;2023-12-20T12:47:07;95765.56;;;19.89;43.04
78582;BME280;67878;46.242;5.974;2023-12-20T12:49:33;95763.94;;;19.88;43.08
78582;BME280;67878;46.242;5.974;2023-12-20T12:51:58;95775.06;;;19.90;43.03
78582;BME280;67878;46.242;5.974;2023-12-20T12:54:24;95765.44;;;19.91;43.31
78582;BME280;67878;46.242;5.974;2023-12-20T12:56:49;95763.75;;;19.90;43.16
78582;BME280;67878;46.242;5.974;2023-12-20T12:59:16;95765.44;;;19.91;43.32
78582;BME280;67878;46.242;5.974;2023-12-20T13:01:41;95775.91;;;19.91;43.35